createdAt,value
2023-03-20T00:02:36.499Z,11.28
2023-03-20T00:05:26.497Z,11.20
2023-03-20T00:08:16.050Z,11.23
2023-03-20T00:11:04.699Z,11.23
2023-03-20T00:13:55.465Z,11.23
2023-03-20T00:16:46.698Z,11.18
2023-03-20T00:19:36.581Z,11.16
2023-03-20T00:22:25.289Z,11.10
2023-03-20T00:25:16.925Z,11.03
2023-03-20T00:28:27.477Z,11.00
2023-03-20T00:31:26.711Z,10.98
2023-03-20T00:34:19.653Z,10.97
2023-03-20T00:37:08.772Z,10.95
2023-03-20T00:39:57.374Z,10.82
2023-03-20T00:42:48.753Z,10.96
2023-03-20T00:45:37.835Z,10.98
2023-03-20T00:48:27.044Z,10.90
2023-03-20T00:51:17.213Z,10.84
2023-03-20T00:54:07.346Z,10.82
2023-03-20T00:57:00.561Z,10.36
2023-03-20T00:59:55.096Z,10.75
2023-03-20T01:02:43.931Z,10.72
2023-03-20T01:05:33.376Z,10.67
2023-03-20T01:08:25.525Z,10.72
2023-03-20T01:11:15.947Z,10.70
2023-03-20T01:14:05.147Z,10.66
2023-03-20T01:16:54.892Z,10.60
2023-03-20T01:19:43.672Z,10.57
2023-03-20T01:22:34.874Z,10.55
2023-03-20T01:25:25.461Z,10.52
2023-03-20T01:28:18.330Z,10.48
2023-03-20T01:31:07.259Z,10.53
2023-03-20T01:33:57.504Z,10.51
2023-03-20T01:36:50.822Z,10.51
2023-03-20T01:39:40.017Z,10.44
2023-03-20T01:42:30.852Z,10.38
2023-03-20T01:45:22.771Z,10.26
2023-03-20T01:48:20.138Z,10.26
2023-03-20T01:51:09.797Z,10.23
2023-03-20T01:54:04.202Z,10.24
2023-03-20T01:57:01.779Z,10.22
2023-03-20T01:59:54.992Z,10.18
2023-03-20T02:02:46.617Z,10.16
2023-03-20T02:05:48.807Z,10.22
2023-03-20T02:08:43.281Z,10.15
2023-03-20T02:11:32.098Z,10.13
2023-03-20T02:14:23.087Z,10.08
2023-03-20T02:17:21.452Z,10.07
2023-03-20T02:20:33.024Z,10.00
2023-03-20T02:23:53.506Z,10.10
2023-03-20T02:27:02.427Z,10.08
2023-03-20T02:30:26.119Z,10.11
2023-03-20T02:33:48.018Z,10.07
2023-03-20T02:36:51.626Z,10.04
2023-03-20T02:39:54.866Z,10.01
2023-03-20T02:42:52.470Z,10.09
2023-03-20T02:45:48.270Z,10.13
2023-03-20T02:48:50.262Z,10.09
2023-03-20T02:51:48.894Z,10.06
2023-03-20T02:54:47.585Z,10.00
2023-03-20T02:57:48.465Z,9.89
2023-03-20T03:00:43.646Z,9.86
2023-03-20T03:03:38.289Z,9.83
2023-03-20T03:06:33.003Z,9.90
2023-03-20T03:09:26.261Z,9.94
2023-03-20T03:12:20.272Z,9.98
2023-03-20T03:15:17.352Z,10.00
2023-03-20T03:18:13.184Z,10.04
2023-03-20T03:21:03.643Z,10.03
2023-03-20T03:23:54.475Z,10.01
2023-03-20T03:26:43.390Z,9.93
2023-03-20T03:29:37.637Z,9.80
2023-03-20T03:32:33.397Z,9.79
2023-03-20T03:35:25.023Z,9.76
2023-03-20T03:38:28.414Z,9.73
2023-03-20T03:41:23.641Z,9.65
2023-03-20T03:44:18.250Z,9.70
2023-03-20T03:47:11.546Z,9.73
2023-03-20T03:50:06.361Z,9.76
2023-03-20T03:53:00.296Z,9.76
2023-03-20T03:55:53.480Z,9.83
2023-03-20T03:58:45.125Z,9.86
2023-03-20T04:01:35.914Z,9.82
2023-03-20T04:04:26.736Z,9.79
2023-03-20T04:07:17.320Z,9.82
2023-03-20T04:10:07.170Z,9.79
2023-03-20T04:12:56.150Z,9.77
2023-03-20T04:15:45.491Z,9.76
2023-03-20T04:18:34.170Z,9.75
2023-03-20T04:21:23.094Z,9.75
2023-03-20T04:24:15.734Z,9.76
2023-03-20T04:27:05.195Z,9.78
2023-03-20T04:29:55.193Z,9.79
2023-03-20T04:33:07.729Z,9.74
2023-03-20T04:36:06.284Z,9.72
2023-03-20T04:38:57.479Z,9.77
2023-03-20T04:41:49.566Z,9.80
2023-03-20T04:44:38.338Z,9.79
2023-03-20T04:47:30.067Z,9.75
2023-03-20T04:50:19.050Z,9.72
2023-03-20T04:53:08.844Z,9.71
2023-03-20T04:56:00.606Z,9.79
2023-03-20T04:58:53.159Z,9.79
2023-03-20T05:01:43.371Z,9.68
2023-03-20T05:04:33.226Z,9.72
2023-03-20T05:07:22.357Z,9.74
2023-03-20T05:10:21.146Z,9.78
2023-03-20T05:13:16.386Z,9.71
2023-03-20T05:16:33.206Z,9.71
2023-03-20T05:19:47.515Z,9.75
2023-03-20T05:22:57.181Z,9.57
2023-03-20T05:26:06.208Z,9.79
2023-03-20T05:29:33.043Z,9.86
2023-03-20T05:32:26.668Z,9.86
2023-03-20T05:35:42.198Z,9.88
2023-03-20T05:38:48.956Z,9.87
2023-03-20T05:41:57.899Z,9.89
2023-03-20T05:45:06.460Z,9.92
2023-03-20T05:48:11.828Z,9.97
2023-03-20T05:51:03.797Z,9.95
2023-03-20T05:54:03.643Z,10.01
2023-03-20T05:57:17.619Z,9.97
2023-03-20T06:00:27.719Z,9.84
2023-03-20T06:03:39.060Z,9.98
2023-03-20T06:06:37.822Z,9.94
2023-03-20T06:09:26.645Z,9.95
2023-03-20T06:12:16.596Z,9.93
2023-03-20T06:15:06.513Z,9.92
2023-03-20T06:18:00.130Z,9.93
2023-03-20T06:20:55.273Z,9.76
2023-03-20T06:23:44.356Z,9.92
2023-03-20T06:26:33.061Z,9.94
2023-03-20T06:29:25.969Z,9.96
2023-03-20T06:32:19.318Z,10.01
2023-03-20T06:35:14.706Z,9.95
2023-03-20T06:38:08.870Z,10.03
2023-03-20T06:40:58.750Z,10.01
2023-03-20T06:43:47.386Z,10.02
2023-03-20T06:46:37.316Z,10.02
2023-03-20T06:49:26.582Z,10.05
2023-03-20T06:52:18.401Z,10.01
2023-03-20T06:55:19.358Z,9.98
2023-03-20T06:58:08.368Z,10.00
2023-03-20T07:00:58.811Z,10.04
2023-03-20T07:03:48.775Z,9.98
2023-03-20T07:06:43.173Z,10.04
2023-03-20T07:09:33.403Z,10.03
2023-03-20T07:12:29.017Z,10.09
2023-03-20T07:15:21.199Z,10.15
2023-03-20T07:18:11.133Z,10.20
2023-03-20T07:21:03.880Z,10.08
2023-03-20T07:23:53.352Z,10.19
2023-03-20T07:26:42.645Z,10.25
2023-03-20T07:29:32.793Z,10.30
2023-03-20T07:32:21.784Z,10.34
2023-03-20T07:35:14.149Z,10.38
2023-03-20T07:38:04.514Z,10.43
2023-03-20T07:40:55.253Z,10.50
2023-03-20T07:43:44.873Z,10.54
2023-03-20T07:46:44.582Z,10.60
2023-03-20T07:49:34.127Z,10.62
2023-03-20T07:52:22.809Z,10.70
2023-03-20T07:55:11.788Z,10.69
2023-03-20T07:58:00.848Z,10.71
2023-03-20T08:00:49.501Z,10.74
2023-03-20T08:03:39.767Z,10.78
2023-03-20T08:06:29.114Z,10.78
2023-03-20T08:09:19.286Z,10.81
2023-03-20T08:12:08.546Z,10.85
2023-03-20T08:14:57.628Z,10.92
2023-03-20T08:17:46.732Z,10.82
2023-03-20T08:20:36.765Z,10.81
2023-03-20T08:23:25.435Z,10.82
2023-03-20T08:26:14.024Z,10.81
2023-03-20T08:29:03.063Z,10.83
2023-03-20T08:31:51.754Z,10.90
2023-03-20T08:34:40.384Z,10.93
2023-03-20T08:37:31.002Z,11.05
2023-03-20T08:40:19.736Z,11.06
2023-03-20T08:43:08.669Z,11.19
2023-03-20T08:45:57.359Z,11.35
2023-03-20T08:48:47.869Z,11.73
2023-03-20T08:51:36.615Z,12.02
2023-03-20T08:54:27.121Z,12.03
2023-03-20T08:57:15.828Z,12.14
2023-03-20T09:00:06.359Z,12.10
2023-03-20T09:02:55.096Z,12.34
2023-03-20T09:05:46.423Z,12.34
2023-03-20T09:08:35.098Z,12.32
2023-03-20T09:11:25.951Z,12.18
2023-03-20T09:14:14.940Z,12.24
2023-03-20T09:17:04.155Z,12.44
2023-03-20T09:19:52.800Z,13.02
2023-03-20T09:22:44.132Z,13.13
2023-03-20T09:25:32.729Z,13.21
2023-03-20T09:28:23.625Z,13.22
2023-03-20T09:31:14.958Z,13.57
2023-03-20T09:34:03.868Z,13.86
2023-03-20T09:36:54.488Z,13.82
2023-03-20T09:39:43.302Z,13.75
2023-03-20T09:42:48.166Z,13.50
2023-03-20T09:45:52.325Z,13.74
2023-03-20T09:48:47.496Z,13.93
2023-03-20T09:51:43.801Z,14.13
2023-03-20T09:54:53.197Z,14.71
2023-03-20T09:57:47.409Z,15.23
2023-03-20T10:00:44.477Z,15.50
2023-03-20T10:03:43.499Z,15.01
2023-03-20T10:06:32.511Z,15.10
2023-03-20T10:09:24.822Z,15.49
2023-03-20T10:12:46.112Z,15.92
2023-03-20T10:15:47.381Z,15.44
2023-03-20T10:18:41.469Z,15.02
2023-03-20T10:21:38.152Z,15.26
2023-03-20T10:24:31.037Z,15.93
2023-03-20T10:27:26.258Z,16.30
2023-03-20T10:30:29.982Z,16.94
2023-03-20T10:33:38.494Z,16.90
2023-03-20T10:36:40.790Z,16.23
2023-03-20T10:39:42.055Z,15.42
2023-03-20T10:42:34.697Z,15.32
2023-03-20T10:45:33.154Z,15.28
2023-03-20T10:48:28.009Z,15.55
2023-03-20T10:51:20.322Z,16.26
2023-03-20T10:54:19.785Z,16.76
2023-03-20T10:57:16.957Z,17.29
2023-03-20T11:00:11.072Z,17.26
2023-03-20T11:02:59.867Z,16.81
2023-03-20T11:06:08.525Z,16.38
2023-03-20T11:08:58.356Z,16.14
2023-03-20T11:11:48.141Z,16.08
2023-03-20T11:14:40.362Z,15.94
2023-03-20T11:17:30.307Z,16.02
2023-03-20T11:20:19.002Z,16.40
2023-03-20T11:23:09.313Z,17.17
2023-03-20T11:26:01.325Z,16.80
2023-03-20T11:28:53.830Z,16.32
2023-03-20T11:31:43.236Z,15.95
2023-03-20T11:34:34.620Z,15.74
2023-03-20T11:37:25.921Z,15.55
2023-03-20T11:40:22.912Z,15.40
2023-03-20T11:43:13.963Z,15.38
2023-03-20T11:46:04.389Z,15.31
2023-03-20T11:49:07.704Z,15.14
2023-03-20T11:52:02.377Z,14.99
2023-03-20T11:54:53.670Z,15.10
2023-03-20T11:57:47.385Z,15.57
2023-03-20T12:00:38.587Z,15.38
2023-03-20T12:03:52.435Z,15.30
2023-03-20T12:06:47.314Z,15.13
2023-03-20T12:09:40.954Z,14.86
2023-03-20T12:12:41.016Z,14.65
2023-03-20T12:15:35.432Z,14.51
2023-03-20T12:18:32.752Z,14.47
2023-03-20T12:21:25.787Z,14.59
2023-03-20T12:24:25.236Z,14.69
2023-03-20T12:27:25.047Z,14.88
2023-03-20T12:30:19.103Z,14.92
2023-03-20T12:33:16.554Z,14.85
2023-03-20T12:36:11.687Z,14.76
2023-03-20T12:39:01.064Z,14.61
2023-03-20T12:42:09.526Z,14.57
2023-03-20T12:45:06.784Z,14.60
2023-03-20T12:48:17.249Z,14.51
2023-03-20T12:51:13.536Z,14.32
2023-03-20T12:54:16.333Z,14.33
2023-03-20T12:57:18.922Z,14.38
2023-03-20T13:00:19.238Z,14.39
2023-03-20T13:03:27.909Z,14.47
2023-03-20T13:06:24.288Z,14.38
2023-03-20T13:09:44.680Z,14.55
2023-03-20T13:12:41.314Z,14.57
2023-03-20T13:15:48.530Z,14.67
2023-03-20T13:18:52.586Z,14.66
2023-03-20T13:21:50.092Z,14.68
2023-03-20T13:24:43.407Z,14.71
2023-03-20T13:27:40.393Z,14.76
2023-03-20T13:30:35.795Z,14.74
2023-03-20T13:33:38.346Z,14.76
2023-03-20T13:36:44.720Z,14.59
2023-03-20T13:39:38.269Z,14.54
2023-03-20T13:42:32.159Z,14.58
2023-03-20T13:45:31.385Z,14.56
2023-03-20T13:48:30.155Z,14.47
2023-03-20T13:51:27.449Z,14.41
2023-03-20T13:54:40.182Z,14.30
2023-03-20T13:57:46.138Z,14.26
2023-03-20T14:00:40.115Z,14.30
2023-03-20T14:03:33.156Z,14.20
2023-03-20T14:06:48.437Z,14.15
2023-03-20T14:09:38.799Z,14.08
2023-03-20T14:12:33.290Z,14.11
2023-03-20T14:15:22.750Z,14.11
2023-03-20T14:18:17.560Z,14.16
2023-03-20T14:21:13.707Z,14.15
2023-03-20T14:24:04.948Z,14.20
2023-03-20T14:26:58.534Z,14.08
2023-03-20T14:29:47.702Z,14.16
2023-03-20T14:32:37.775Z,14.14
2023-03-20T14:35:29.383Z,14.16
2023-03-20T14:38:27.455Z,14.15
2023-03-20T14:41:22.490Z,14.20
2023-03-20T14:44:26.320Z,14.28
2023-03-20T14:47:33.562Z,14.34
2023-03-20T14:50:27.763Z,14.31
2023-03-20T14:53:19.964Z,14.29
2023-03-20T14:56:11.982Z,14.28
2023-03-20T14:59:06.497Z,14.28
2023-03-20T15:01:59.080Z,14.28
2023-03-20T15:04:49.064Z,14.41
2023-03-20T15:07:40.550Z,13.93
2023-03-20T15:10:30.163Z,14.30
2023-03-20T15:13:20.584Z,14.39
2023-03-20T15:16:12.865Z,14.33
2023-03-20T15:19:18.689Z,14.24
2023-03-20T15:22:25.159Z,14.26
2023-03-20T15:25:18.650Z,14.26
2023-03-20T15:28:14.479Z,14.28
2023-03-20T15:31:06.929Z,14.30
2023-03-20T15:33:57.229Z,14.29
2023-03-20T15:36:49.481Z,14.30
2023-03-20T15:39:45.002Z,14.37
2023-03-20T15:42:34.136Z,14.48
2023-03-20T15:45:27.200Z,14.57
2023-03-20T15:48:21.674Z,14.92
2023-03-20T15:51:11.804Z,15.34
2023-03-20T15:54:08.343Z,15.53
2023-03-20T15:57:01.213Z,15.71
2023-03-20T15:59:49.932Z,15.77
2023-03-20T16:02:39.582Z,15.60
2023-03-20T16:05:30.121Z,15.61
2023-03-20T16:08:26.116Z,15.54
2023-03-20T16:11:19.240Z,15.48
2023-03-20T16:14:11.491Z,15.24
2023-03-20T16:17:02.648Z,15.13
2023-03-20T16:19:51.793Z,14.99
2023-03-20T16:22:42.742Z,14.85
2023-03-20T16:25:32.169Z,14.81
2023-03-20T16:28:22.396Z,14.86
2023-03-20T16:31:17.139Z,14.81
2023-03-20T16:34:09.078Z,14.85
2023-03-20T16:37:00.117Z,14.76
2023-03-20T16:39:48.747Z,14.67
2023-03-20T16:42:38.730Z,14.53
2023-03-20T16:45:31.348Z,14.43
2023-03-20T16:48:28.131Z,14.32
2023-03-20T16:51:22.264Z,14.23
2023-03-20T16:54:21.165Z,14.14
2023-03-20T16:57:10.973Z,14.11
2023-03-20T17:00:04.725Z,14.11
2023-03-20T17:03:02.001Z,14.08
2023-03-20T17:05:56.287Z,14.05
2023-03-20T17:08:50.363Z,13.99
2023-03-20T17:11:41.321Z,13.94
2023-03-20T17:14:31.143Z,13.84
2023-03-20T17:17:22.309Z,13.72
2023-03-20T17:20:20.299Z,13.75
2023-03-20T17:23:14.249Z,13.70
2023-03-20T17:26:03.100Z,13.63
2023-03-20T17:28:52.085Z,13.53
2023-03-20T17:31:41.604Z,13.54
2023-03-20T17:34:31.792Z,13.48
2023-03-20T17:37:28.315Z,13.44
2023-03-20T17:40:20.639Z,13.39
2023-03-20T17:43:12.450Z,13.37
2023-03-20T17:46:01.154Z,13.35
2023-03-20T17:48:51.102Z,13.36
2023-03-20T17:51:40.690Z,13.38
2023-03-20T17:54:30.718Z,13.40
2023-03-20T17:57:23.424Z,13.45
2023-03-20T18:00:18.067Z,13.45
2023-03-20T18:03:06.757Z,13.43
2023-03-20T18:05:55.927Z,13.39
2023-03-20T18:08:44.694Z,13.32
2023-03-20T18:11:34.688Z,13.24
2023-03-20T18:14:24.483Z,13.17
2023-03-20T18:17:14.475Z,13.05
2023-03-20T18:20:03.869Z,12.97
2023-03-20T18:22:52.460Z,12.91
2023-03-20T18:25:42.615Z,12.85
2023-03-20T18:28:32.593Z,12.77
2023-03-20T18:31:21.731Z,12.68
2023-03-20T18:34:10.400Z,12.61
2023-03-20T18:36:59.041Z,12.50
2023-03-20T18:39:47.616Z,12.26
2023-03-20T18:42:36.214Z,12.13
2023-03-20T18:45:27.898Z,12.11
2023-03-20T18:48:17.350Z,12.06
2023-03-20T18:51:06.424Z,12.00
2023-03-20T18:53:55.443Z,11.98
2023-03-20T18:56:44.614Z,11.85
2023-03-20T18:59:33.770Z,11.68
2023-03-20T19:02:23.730Z,11.64
2023-03-20T19:05:12.831Z,11.65
2023-03-20T19:08:03.226Z,11.68
2023-03-20T19:10:53.214Z,11.64
2023-03-20T19:13:44.830Z,11.52
2023-03-20T19:16:37.895Z,11.27
2023-03-20T19:19:29.633Z,11.00
2023-03-20T19:22:29.372Z,10.86
2023-03-20T19:25:19.071Z,10.87
2023-03-20T19:28:11.536Z,10.92
2023-03-20T19:31:06.378Z,10.90
2023-03-20T19:33:57.203Z,10.88
2023-03-20T19:36:48.994Z,10.88
2023-03-20T19:39:37.567Z,10.87
2023-03-20T19:45:37.865Z,10.87
2023-03-20T19:51:36.224Z,10.81
2023-03-20T19:54:28.437Z,10.81
2023-03-20T19:57:17.623Z,10.86
2023-03-20T20:03:19.590Z,10.82
2023-03-20T20:06:09.853Z,10.76
2023-03-20T20:08:59.161Z,10.56
2023-03-20T20:11:49.967Z,10.53
2023-03-20T20:14:39.077Z,10.44
2023-03-20T20:17:27.698Z,10.41
2023-03-20T20:20:20.630Z,10.38
2023-03-20T20:23:15.704Z,10.34
2023-03-20T20:26:05.749Z,10.26
2023-03-20T20:28:55.820Z,10.21
2023-03-20T20:31:45.232Z,10.16
2023-03-20T20:40:54.002Z,10.00
2023-03-20T20:44:14.213Z,9.93
2023-03-20T20:46:53.388Z,9.86
2023-03-20T20:49:42.880Z,9.77
2023-03-20T20:52:31.797Z,9.64
2023-03-20T20:55:24.223Z,9.62
2023-03-20T20:58:14.064Z,9.57
2023-03-20T21:01:03.177Z,9.60
2023-03-20T21:03:54.698Z,9.66
2023-03-20T21:07:07.392Z,9.63
2023-03-20T21:09:54.608Z,9.57
2023-03-20T21:12:58.148Z,9.52
2023-03-20T21:15:48.174Z,9.58
2023-03-20T21:18:37.325Z,9.60
2023-03-20T21:21:28.488Z,9.43
2023-03-20T21:24:31.590Z,9.37
2023-03-20T21:27:23.117Z,9.29
2023-03-20T21:30:12.548Z,9.29
2023-03-20T21:33:01.319Z,9.25
2023-03-20T21:35:51.779Z,9.23
2023-03-20T21:41:51.445Z,9.29
2023-03-20T21:48:39.405Z,9.18
2023-03-20T21:51:49.531Z,9.16
2023-03-20T21:58:00.192Z,9.06
2023-03-20T22:10:46.101Z,9.09
2023-03-20T22:13:59.461Z,9.11
2023-03-20T22:17:17.616Z,9.11
2023-03-20T22:20:19.609Z,9.11
2023-03-20T22:29:44.052Z,9.16
2023-03-20T22:36:10.906Z,8.96
2023-03-20T22:39:14.149Z,9.02
2023-03-20T22:42:26.003Z,9.00
2023-03-20T22:45:01.407Z,8.98
2023-03-20T22:47:51.537Z,8.90
2023-03-20T22:50:41.055Z,8.88
2023-03-20T22:53:30.988Z,8.81
2023-03-20T22:56:20.420Z,8.84
2023-03-20T22:59:10.398Z,8.81
2023-03-20T23:01:59.358Z,8.77
2023-03-20T23:04:48.298Z,8.69
2023-03-20T23:07:37.642Z,8.64
2023-03-20T23:10:26.897Z,8.55
2023-03-20T23:13:17.035Z,8.55
2023-03-20T23:16:08.901Z,8.57
2023-03-20T23:18:58.169Z,8.62
2023-03-20T23:21:46.776Z,8.55
2023-03-20T23:24:35.384Z,8.48
2023-03-20T23:27:23.969Z,8.47
2023-03-20T23:30:14.659Z,8.54
2023-03-20T23:33:05.710Z,8.52
2023-03-20T23:36:01.285Z,8.38
2023-03-20T23:38:53.863Z,8.34
2023-03-20T23:42:12.040Z,8.26
2023-03-20T23:44:58.697Z,8.30
2023-03-20T23:47:49.580Z,8.23
2023-03-20T23:50:52.178Z,8.23
2023-03-20T23:53:42.160Z,8.26
2023-03-20T23:56:31.625Z,8.24
2023-03-20T23:59:22.421Z,8.24
